sensor_id;sensor_type;location;lat;lon;timestamp;pressure;altitude;pressure_sealevel;temperature;humidity
23303;BME280;11820;48.738;9.092;2023-02-03T00:01:38;97497.38;;;5.48;nan
23303;BME280;11820;48.738;9.092;2023-02-03T00:04:04;97513.69;;;5.37;nan
23303;BME280;11820;48.738;9.092;2023-02-03T00:06:30;97512.50;;;5.41;nan
23303;BME280;11820;48.738;9.092;2023-02-03T00:08:56;97503.44;;;5.47;nan
23303;BME280;11820;48.738;9.092;2023-02-03T00:11:23;97501.16;;;5.44;nan
23303;BME280;11820;48.738;9.092;2023-02-03T00:13:49;97489.00;;;5.46;nan
23303;BME280;11820;48.738;9.092;2023-02-03T00:16:14;97490.09;;;5.43;nan
23303;BME280;11820;48.738;9.092;2023-02-03T00:18:39;97502.22;;;5.32;nan
23303;BME280;11820;48.738;9.092;2023-02-03T00:21:05;97494.66;;;5.40;nan
23303;BME280;11820;48.738;9.092;2023-02-03T00:23:31;97489.00;;;5.46;nan
23303;BME280;11820;48.738;9.092;2023-02-03T00:25:57;97489.25;;;5.33;nan
23303;BME280;11820;48.738;9.092;2023-02-03T00:28:30;97499.50;;;5.33;nan
23303;BME280;11820;48.738;9.092;2023-02-03T00:30:56;97500.59;;;5.31;nan
23303;BME280;11820;48.738;9.092;2023-02-03T00:33:21;97489.13;;;5.35;nan
23303;BME280;11820;48.738;9.092;2023-02-03T00:35:46;97502.72;;;5.26;nan
23303;BME280;11820;48.738;9.092;2023-02-03T00:38:11;97504.09;;;5.30;nan
23303;BME280;11820;48.738;9.092;2023-02-03T00:40:37;97498.28;;;5.28;nan
23303;BME280;11820;48.738;9.092;2023-02-03T00:43:02;97503.53;;;5.26;nan
23303;BME280;11820;48.738;9.092;2023-02-03T00:45:27;97504.09;;;5.30;nan
23303;BME280;11820;48.738;9.092;2023-02-03T00:47:53;97519.75;;;5.27;nan
23303;BME280;11820;48.738;9.092;2023-02-03T00:50:18;97508.94;;;5.33;nan
23303;BME280;11820;48.738;9.092;2023-02-03T00:52:43;97519.06;;;5.34;nan
23303;BME280;11820;48.738;9.092;2023-02-03T00:55:09;97510.16;;;5.29;nan
23303;BME280;11820;48.738;9.092;2023-02-03T00:57:34;97518.38;;;5.32;nan
23303;BME280;11820;48.738;9.092;2023-02-03T00:59:59;97518.66;;;5.29;nan
23303;BME280;11820;48.738;9.092;2023-02-03T01:02:25;97522.97;;;5.29;nan
23303;BME280;11820;48.738;9.092;2023-02-03T01:04:50;97523.09;;;5.27;nan
23303;BME280;11820;48.738;9.092;2023-02-03T01:07:15;97518.13;;;5.26;nan
23303;BME280;11820;48.738;9.092;2023-02-03T01:09:41;97514.75;;;5.35;nan
23303;BME280;11820;48.738;9.092;2023-02-03T01:12:06;97516.34;;;5.26;nan
23303;BME280;11820;48.738;9.092;2023-02-03T01:14:32;97524.41;;;5.22;nan
23303;BME280;11820;48.738;9.092;2023-02-03T01:16:57;97516.50;;;5.25;nan
23303;BME280;11820;48.738;9.092;2023-02-03T01:19:23;97520.78;;;5.24;nan
23303;BME280;11820;48.738;9.092;2023-02-03T01:21:48;97500.13;;;5.16;nan
23303;BME280;11820;48.738;9.092;2023-02-03T01:24:13;97486.22;;;5.19;nan
23303;BME280;11820;48.738;9.092;2023-02-03T01:26:39;97472.47;;;5.20;nan
23303;BME280;11820;48.738;9.092;2023-02-03T01:29:04;97464.78;;;5.10;nan
23303;BME280;11820;48.738;9.092;2023-02-03T01:31:38;97465.69;;;5.09;nan
23303;BME280;11820;48.738;9.092;2023-02-03T01:34:05;97474.31;;;5.08;nan
23303;BME280;11820;48.738;9.092;2023-02-03T01:36:32;97477.19;;;5.15;nan
23303;BME280;11820;48.738;9.092;2023-02-03T01:38:58;97478.41;;;5.20;nan
23303;BME280;11820;48.738;9.092;2023-02-03T01:41:27;97468.97;;;5.21;nan
23303;BME280;11820;48.738;9.092;2023-02-03T01:43:54;97469.19;;;5.08;nan
23303;BME280;11820;48.738;9.092;2023-02-03T01:46:33;97468.66;;;5.05;nan
23303;BME280;11820;48.738;9.092;2023-02-03T01:51:43;97465.47;;;5.12;nan
23303;BME280;11820;48.738;9.092;2023-02-03T01:54:14;97483.00;;;5.17;nan
23303;BME280;11820;48.738;9.092;2023-02-03T01:56:45;97475.81;;;5.11;nan
23303;BME280;11820;48.738;9.092;2023-02-03T01:59:15;97483.00;;;5.17;nan
23303;BME280;11820;48.738;9.092;2023-02-03T02:01:42;97474.91;;;5.21;nan
23303;BME280;11820;48.738;9.092;2023-02-03T02:04:08;97487.19;;;5.27;nan
23303;BME280;11820;48.738;9.092;2023-02-03T02:06:34;97466.69;;;5.27;nan
23303;BME280;11820;48.738;9.092;2023-02-03T02:09:00;97467.78;;;5.25;nan
23303;BME280;11820;48.738;9.092;2023-02-03T02:11:26;97453.09;;;5.27;nan
23303;BME280;11820;48.738;9.092;2023-02-03T02:13:54;97456.06;;;5.32;nan
23303;BME280;11820;48.738;9.092;2023-02-03T02:30:35;97411.28;;;5.45;nan
23303;BME280;11820;48.738;9.092;2023-02-03T02:33:15;97420.28;;;5.40;nan
23303;BME280;11820;48.738;9.092;2023-02-03T02:41:25;97397.50;;;5.37;nan
23303;BME280;11820;48.738;9.092;2023-02-03T02:46:32;97382.75;;;5.29;nan
23303;BME280;11820;48.738;9.092;2023-02-03T02:49:15;97374.41;;;5.27;nan
23303;BME280;11820;48.738;9.092;2023-02-03T02:51:45;97359.03;;;5.27;nan
23303;BME280;11820;48.738;9.092;2023-02-03T02:54:16;97377.53;;;5.31;nan
23303;BME280;11820;48.738;9.092;2023-02-03T02:56:44;97396.13;;;5.33;nan
23303;BME280;11820;48.738;9.092;2023-02-03T02:59:13;97405.59;;;5.42;nan
23303;BME280;11820;48.738;9.092;2023-02-03T03:01:38;97409.66;;;5.44;nan
23303;BME280;11820;48.738;9.092;2023-02-03T03:04:06;97406.53;;;5.41;nan
23303;BME280;11820;48.738;9.092;2023-02-03T03:06:55;97409.78;;;5.43;nan
23303;BME280;11820;48.738;9.092;2023-02-03T03:09:38;97413.44;;;5.40;nan
23303;BME280;11820;48.738;9.092;2023-02-03T03:12:13;97405.59;;;5.42;nan
23303;BME280;11820;48.738;9.092;2023-02-03T03:14:43;97392.34;;;5.37;nan
23303;BME280;11820;48.738;9.092;2023-02-03T03:17:12;97399.09;;;5.38;nan
23303;BME280;11820;48.738;9.092;2023-02-03T03:19:46;97402.63;;;5.37;nan
23303;BME280;11820;48.738;9.092;2023-02-03T03:22:15;97393.19;;;5.37;nan
23303;BME280;11820;48.738;9.092;2023-02-03T03:24:48;97400.47;;;5.42;nan
23303;BME280;11820;48.738;9.092;2023-02-03T03:27:28;97390.88;;;5.44;nan
23303;BME280;11820;48.738;9.092;2023-02-03T03:30:04;97388.03;;;5.47;nan
23303;BME280;11820;48.738;9.092;2023-02-03T03:32:32;97386.41;;;5.46;nan
23303;BME280;11820;48.738;9.092;2023-02-03T03:34:58;97400.47;;;5.42;nan
23303;BME280;11820;48.738;9.092;2023-02-03T03:39:56;97414.50;;;5.38;nan
23303;BME280;11820;48.738;9.092;2023-02-03T03:42:33;97428.94;;;5.39;nan
23303;BME280;11820;48.738;9.092;2023-02-03T03:45:05;97423.94;;;5.47;nan
23303;BME280;11820;48.738;9.092;2023-02-03T03:47:56;97418.00;;;5.46;nan
23303;BME280;11820;48.738;9.092;2023-02-03T03:50:28;97428.84;;;5.50;nan
23303;BME280;11820;48.738;9.092;2023-02-03T03:52:56;97442.72;;;5.57;nan
23303;BME280;11820;48.738;9.092;2023-02-03T03:55:24;97439.91;;;5.60;nan
23303;BME280;11820;48.738;9.092;2023-02-03T03:58:04;97449.59;;;5.56;nan
23303;BME280;11820;48.738;9.092;2023-02-03T04:00:33;97455.97;;;5.62;nan
23303;BME280;11820;48.738;9.092;2023-02-03T04:03:04;97461.50;;;5.67;nan
23303;BME280;11820;48.738;9.092;2023-02-03T04:05:32;97467.16;;;5.51;nan
23303;BME280;11820;48.738;9.092;2023-02-03T04:07:58;97470.94;;;5.47;nan
23303;BME280;11820;48.738;9.092;2023-02-03T04:10:36;97478.75;;;5.46;nan
23303;BME280;11820;48.738;9.092;2023-02-03T04:13:03;97469.69;;;5.42;nan
23303;BME280;11820;48.738;9.092;2023-02-03T04:15:29;97459.16;;;5.45;nan
23303;BME280;11820;48.738;9.092;2023-02-03T04:17:55;97457.81;;;5.41;nan
23303;BME280;11820;48.738;9.092;2023-02-03T04:20:22;97459.31;;;5.43;nan
23303;BME280;11820;48.738;9.092;2023-02-03T04:22:48;97452.69;;;5.41;nan
23303;BME280;11820;48.738;9.092;2023-02-03T04:25:13;97450.38;;;5.38;nan
23303;BME280;11820;48.738;9.092;2023-02-03T04:27:39;97461.72;;;5.45;nan
23303;BME280;11820;48.738;9.092;2023-02-03T04:30:04;97469.03;;;5.40;nan
23303;BME280;11820;48.738;9.092;2023-02-03T04:32:30;97459.06;;;5.46;nan
23303;BME280;11820;48.738;9.092;2023-02-03T04:34:56;97445.53;;;5.35;nan
23303;BME280;11820;48.738;9.092;2023-02-03T04:37:23;97448.38;;;5.41;nan
23303;BME280;11820;48.738;9.092;2023-02-03T04:39:50;97431.50;;;5.48;nan
23303;BME280;11820;48.738;9.092;2023-02-03T04:42:16;97434.88;;;5.39;nan
23303;BME280;11820;48.738;9.092;2023-02-03T04:44:42;97436.22;;;5.34;nan
23303;BME280;11820;48.738;9.092;2023-02-03T04:47:07;97440.53;;;5.24;nan
23303;BME280;11820;48.738;9.092;2023-02-03T04:49:32;97432.44;;;5.38;nan
23303;BME280;11820;48.738;9.092;2023-02-03T04:51:58;97441.66;;;5.50;nan
23303;BME280;11820;48.738;9.092;2023-02-03T04:54:23;97435.56;;;5.51;nan
23303;BME280;11820;48.738;9.092;2023-02-03T04:56:48;97440.94;;;5.48;nan
23303;BME280;11820;48.738;9.092;2023-02-03T04:59:14;97433.97;;;5.50;nan
23303;BME280;11820;48.738;9.092;2023-02-03T05:01:39;97438.22;;;5.30;nan
23303;BME280;11820;48.738;9.092;2023-02-03T05:04:10;97419.88;;;5.35;nan
23303;BME280;11820;48.738;9.092;2023-02-03T05:06:35;97417.06;;;5.38;nan
23303;BME280;11820;48.738;9.092;2023-02-03T05:09:01;97410.56;;;5.34;nan
23303;BME280;11820;48.738;9.092;2023-02-03T05:11:26;97413.53;;;5.29;nan
23303;BME280;11820;48.738;9.092;2023-02-03T05:13:52;97401.66;;;5.38;nan
23303;BME280;11820;48.738;9.092;2023-02-03T05:16:17;97418.94;;;5.26;nan
23303;BME280;11820;48.738;9.092;2023-02-03T05:18:43;97418.53;;;5.31;nan
23303;BME280;11820;48.738;9.092;2023-02-03T05:21:08;97427.59;;;5.35;nan
23303;BME280;11820;48.738;9.092;2023-02-03T05:23:33;97437.16;;;5.33;nan
23303;BME280;11820;48.738;9.092;2023-02-03T05:25:59;97444.47;;;5.37;nan
23303;BME280;11820;48.738;9.092;2023-02-03T05:28:24;97443.63;;;5.37;nan
23303;BME280;11820;48.738;9.092;2023-02-03T05:30:49;97447.81;;;5.38;nan
23303;BME280;11820;48.738;9.092;2023-02-03T05:33:15;97450.94;;;5.32;nan
23303;BME280;11820;48.738;9.092;2023-02-03T05:35:40;97437.56;;;5.38;nan
23303;BME280;11820;48.738;9.092;2023-02-03T05:38:06;97440.94;;;5.48;nan
23303;BME280;11820;48.738;9.092;2023-02-03T05:40:31;97449.03;;;5.34;nan
23303;BME280;11820;48.738;9.092;2023-02-03T05:43:16;97458.66;;;5.41;nan
23303;BME280;11820;48.738;9.092;2023-02-03T05:45:41;97456.19;;;5.40;nan
23303;BME280;11820;48.738;9.092;2023-02-03T05:48:07;97458.91;;;5.38;nan
23303;BME280;11820;48.738;9.092;2023-02-03T05:50:33;97455.66;;;5.36;nan
23303;BME280;11820;48.738;9.092;2023-02-03T05:52:59;97447.72;;;5.39;nan
23303;BME280;11820;48.738;9.092;2023-02-03T05:55:26;97440.13;;;5.38;nan
23303;BME280;11820;48.738;9.092;2023-02-03T05:57:52;97443.63;;;5.37;nan
23303;BME280;11820;48.738;9.092;2023-02-03T06:00:18;97430.41;;;5.32;nan
23303;BME280;11820;48.738;9.092;2023-02-03T06:02:56;97435.53;;;5.22;nan
23303;BME280;11820;48.738;9.092;2023-02-03T06:05:22;97434.19;;;5.28;nan
23303;BME280;11820;48.738;9.092;2023-02-03T06:07:49;97435.13;;;5.27;nan
23303;BME280;11820;48.738;9.092;2023-02-03T06:10:15;97435.28;;;5.35;nan
23303;BME280;11820;48.738;9.092;2023-02-03T06:12:40;97436.06;;;5.26;nan
23303;BME280;11820;48.738;9.092;2023-02-03T06:15:06;97434.19;;;5.28;nan
23303;BME280;11820;48.738;9.092;2023-02-03T06:17:32;97436.75;;;5.28;nan
23303;BME280;11820;48.738;9.092;2023-02-03T06:19:57;97410.28;;;5.27;nan
23303;BME280;11820;48.738;9.092;2023-02-03T06:22:23;97409.34;;;5.28;nan
23303;BME280;11820;48.738;9.092;2023-02-03T06:24:48;97419.75;;;5.27;nan
23303;BME280;11820;48.738;9.092;2023-02-03T06:27:14;97419.59;;;5.28;nan
23303;BME280;11820;48.738;9.092;2023-02-03T06:29:40;97421.38;;;5.28;nan
23303;BME280;11820;48.738;9.092;2023-02-03T06:32:06;97425.94;;;5.24;nan
23303;BME280;11820;48.738;9.092;2023-02-03T06:34:31;97438.50;;;5.27;nan
23303;BME280;11820;48.738;9.092;2023-02-03T06:36:57;97427.19;;;5.30;nan
23303;BME280;11820;48.738;9.092;2023-02-03T06:39:23;97425.81;;;5.26;nan
23303;BME280;11820;48.738;9.092;2023-02-03T06:41:48;97427.94;;;5.21;nan
23303;BME280;11820;48.738;9.092;2023-02-03T06:44:16;97428.78;;;5.21;nan
23303;BME280;11820;48.738;9.092;2023-02-03T06:46:41;97424.31;;;5.23;nan
23303;BME280;11820;48.738;9.092;2023-02-03T06:49:07;97412.56;;;5.21;nan
23303;BME280;11820;48.738;9.092;2023-02-03T06:51:32;97412.31;;;5.24;nan
23303;BME280;11820;48.738;9.092;2023-02-03T06:53:57;97412.72;;;5.19;nan
23303;BME280;11820;48.738;9.092;2023-02-03T06:56:23;97400.69;;;5.20;nan
23303;BME280;11820;48.738;9.092;2023-02-03T06:58:48;97402.31;;;5.11;nan
23303;BME280;11820;48.738;9.092;2023-02-03T07:01:14;97406.25;;;5.15;nan
23303;BME280;11820;48.738;9.092;2023-02-03T07:03:39;97400.69;;;5.20;nan
23303;BME280;11820;48.738;9.092;2023-02-03T07:06:05;97397.19;;;5.21;nan
23303;BME280;11820;48.738;9.092;2023-02-03T07:08:30;97402.06;;;5.24;nan
23303;BME280;11820;48.738;9.092;2023-02-03T07:10:55;97403.94;;;5.22;nan
23303;BME280;11820;48.738;9.092;2023-02-03T07:13:21;97405.69;;;5.21;nan
23303;BME280;11820;48.738;9.092;2023-02-03T07:15:46;97392.63;;;5.24;nan
23303;BME280;11820;48.738;9.092;2023-02-03T07:18:11;97394.63;;;5.21;nan
23303;BME280;11820;48.738;9.092;2023-02-03T07:20:37;97393.69;;;5.22;nan
23303;BME280;11820;48.738;9.092;2023-02-03T07:23:02;97393.03;;;5.29;nan
23303;BME280;11820;48.738;9.092;2023-02-03T07:25:29;97391.25;;;5.20;nan
23303;BME280;11820;48.738;9.092;2023-02-03T07:27:54;97388.44;;;5.23;nan
23303;BME280;11820;48.738;9.092;2023-02-03T07:30:20;97379.91;;;5.23;nan
23303;BME280;11820;48.738;9.092;2023-02-03T07:32:47;97387.34;;;5.16;nan
23303;BME280;11820;48.738;9.092;2023-02-03T07:35:13;97391.34;;;5.09;nan
23303;BME280;11820;48.738;9.092;2023-02-03T07:37:38;97396.09;;;5.14;nan
23303;BME280;11820;48.738;9.092;2023-02-03T07:40:04;97391.78;;;5.05;nan
23303;BME280;11820;48.738;9.092;2023-02-03T07:42:29;97401.63;;;5.19;nan
23303;BME280;11820;48.738;9.092;2023-02-03T07:44:54;97401.78;;;5.17;nan
23303;BME280;11820;48.738;9.092;2023-02-03T07:47:20;97410.69;;;5.13;nan
23303;BME280;11820;48.738;9.092;2023-02-03T07:49:45;97427.16;;;5.20;nan
23303;BME280;11820;48.738;9.092;2023-02-03T07:52:10;97428.50;;;5.24;nan
23303;BME280;11820;48.738;9.092;2023-02-03T07:54:35;97432.97;;;5.22;nan
23303;BME280;11820;48.738;9.092;2023-02-03T07:57:01;97440.38;;;5.25;nan
23303;BME280;11820;48.738;9.092;2023-02-03T07:59:26;97446.19;;;5.27;nan
23303;BME280;11820;48.738;9.092;2023-02-03T08:01:51;97447.78;;;5.19;nan
23303;BME280;11820;48.738;9.092;2023-02-03T08:04:20;97453.81;;;5.08;nan
23303;BME280;11820;48.738;9.092;2023-02-03T08:06:45;97461.66;;;5.07;nan
23303;BME280;11820;48.738;9.092;2023-02-03T08:09:11;97464.63;;;5.12;nan
23303;BME280;11820;48.738;9.092;2023-02-03T08:11:36;97470.97;;;5.08;nan
23303;BME280;11820;48.738;9.092;2023-02-03T08:14:01;97460.31;;;5.22;nan
23303;BME280;11820;48.738;9.092;2023-02-03T08:16:27;97465.97;;;5.16;nan
23303;BME280;11820;48.738;9.092;2023-02-03T08:18:52;97459.00;;;5.27;nan
23303;BME280;11820;48.738;9.092;2023-02-03T08:21:17;97466.28;;;5.22;nan
23303;BME280;11820;48.738;9.092;2023-02-03T08:23:43;97457.94;;;5.30;nan
23303;BME280;11820;48.738;9.092;2023-02-03T08:26:08;97467.34;;;5.20;nan
23303;BME280;11820;48.738;9.092;2023-02-03T08:28:33;97464.94;;;5.18;nan
23303;BME280;11820;48.738;9.092;2023-02-03T08:30:59;97472.75;;;5.26;nan
23303;BME280;11820;48.738;9.092;2023-02-03T08:33:24;97487.88;;;5.29;nan
23303;BME280;11820;48.738;9.092;2023-02-03T08:35:50;97478.44;;;5.30;nan
23303;BME280;11820;48.738;9.092;2023-02-03T08:38:15;97480.47;;;5.36;nan
23303;BME280;11820;48.738;9.092;2023-02-03T08:40:41;97479.25;;;5.30;nan
23303;BME280;11820;48.738;9.092;2023-02-03T08:43:06;97478.41;;;5.20;nan
23303;BME280;11820;48.738;9.092;2023-02-03T08:45:32;97479.50;;;5.27;nan
23303;BME280;11820;48.738;9.092;2023-02-03T08:47:57;97487.34;;;5.26;nan
23303;BME280;11820;48.738;9.092;2023-02-03T08:50:22;97489.50;;;5.30;nan
23303;BME280;11820;48.738;9.092;2023-02-03T08:52:48;97483.59;;;5.39;nan
23303;BME280;11820;48.738;9.092;2023-02-03T08:55:13;97486.56;;;5.35;nan
23303;BME280;11820;48.738;9.092;2023-02-03T08:57:39;97466.88;;;5.45;nan
23303;BME280;11820;48.738;9.092;2023-02-03T09:00:07;97475.47;;;5.34;nan
23303;BME280;11820;48.738;9.092;2023-02-03T09:02:32;97475.34;;;5.36;nan
23303;BME280;11820;48.738;9.092;2023-02-03T09:04:58;97478.03;;;5.34;nan
23303;BME280;11820;48.738;9.092;2023-02-03T09:07:23;97480.88;;;5.31;nan
23303;BME280;11820;48.738;9.092;2023-02-03T09:09:49;97483.47;;;5.41;nan
23303;BME280;11820;48.738;9.092;2023-02-03T09:12:14;97477.41;;;5.51;nan
23303;BME280;11820;48.738;9.092;2023-02-03T09:14:40;97453.09;;;5.46;nan
23303;BME280;11820;48.738;9.092;2023-02-03T09:17:06;97455.81;;;5.54;nan
23303;BME280;11820;48.738;9.092;2023-02-03T09:19:32;97463.38;;;5.65;nan
23303;BME280;11820;48.738;9.092;2023-02-03T09:21:57;97459.94;;;5.85;nan
23303;BME280;11820;48.738;9.092;2023-02-03T09:24:23;97457.63;;;5.82;nan
23303;BME280;11820;48.738;9.092;2023-02-03T09:26:49;97443.97;;;5.91;nan
23303;BME280;11820;48.738;9.092;2023-02-03T09:29:14;97450.47;;;6.04;nan
23303;BME280;11820;48.738;9.092;2023-02-03T09:31:40;97452.09;;;6.05;nan
23303;BME280;11820;48.738;9.092;2023-02-03T09:34:05;97465.34;;;6.01;nan
23303;BME280;11820;48.738;9.092;2023-02-03T09:36:31;97468.03;;;5.99;nan
23303;BME280;11820;48.738;9.092;2023-02-03T09:38:56;97456.53;;;6.03;nan
23303;BME280;11820;48.738;9.092;2023-02-03T09:46:50;97463.56;;;6.11;nan
23303;BME280;11820;48.738;9.092;2023-02-03T09:49:26;97471.41;;;6.09;nan
23303;BME280;11820;48.738;9.092;2023-02-03T09:52:06;97476.41;;;6.11;nan
23303;BME280;11820;48.738;9.092;2023-02-03T09:56:59;97474.78;;;6.29;nan
23303;BME280;11820;48.738;9.092;2023-02-03T09:59:27;97471.00;;;6.23;nan
23303;BME280;11820;48.738;9.092;2023-02-03T10:05:05;97458.84;;;6.06;nan
23303;BME280;11820;48.738;9.092;2023-02-03T10:19:09;97434.56;;;6.46;nan
23303;BME280;11820;48.738;9.092;2023-02-03T10:21:40;97443.09;;;6.56;nan
23303;BME280;11820;48.738;9.092;2023-02-03T10:24:13;97459.19;;;6.39;nan
23303;BME280;11820;48.738;9.092;2023-02-03T10:26:40;97469.75;;;6.46;nan
23303;BME280;11820;48.738;9.092;2023-02-03T10:31:37;97479.34;;;6.53;nan
23303;BME280;11820;48.738;9.092;2023-02-03T10:34:11;97469.06;;;6.53;nan
23303;BME280;11820;48.738;9.092;2023-02-03T10:41:52;97463.25;;;6.51;nan
23303;BME280;11820;48.738;9.092;2023-02-03T10:44:18;97463.34;;;6.59;nan
23303;BME280;11820;48.738;9.092;2023-02-03T10:46:43;97451.06;;;6.53;nan
23303;BME280;11820;48.738;9.092;2023-02-03T10:49:11;97441.13;;;6.77;nan
23303;BME280;11820;48.738;9.092;2023-02-03T10:51:59;97438.28;;;6.80;nan
23303;BME280;11820;48.738;9.092;2023-02-03T10:54:31;97419.06;;;8.16;nan
23303;BME280;11820;48.738;9.092;2023-02-03T10:57:11;97394.50;;;9.22;nan
23303;BME280;11820;48.738;9.092;2023-02-03T10:59:41;97384.84;;;9.16;nan
23303;BME280;11820;48.738;9.092;2023-02-03T11:02:34;97385.94;;;8.72;nan
23303;BME280;11820;48.738;9.092;2023-02-03T11:05:19;97393.13;;;7.92;nan
23303;BME280;11820;48.738;9.092;2023-02-03T11:07:45;97400.22;;;7.73;nan
23303;BME280;11820;48.738;9.092;2023-02-03T11:10:38;97417.56;;;7.53;nan
23303;BME280;11820;48.738;9.092;2023-02-03T11:15:59;97405.13;;;7.31;nan
23303;BME280;11820;48.738;9.092;2023-02-03T11:18:34;97417.03;;;7.32;nan
23303;BME280;11820;48.738;9.092;2023-02-03T11:21:05;97422.56;;;7.10;nan
23303;BME280;11820;48.738;9.092;2023-02-03T11:23:31;97411.41;;;7.19;nan
23303;BME280;11820;48.738;9.092;2023-02-03T11:25:56;97420.13;;;7.09;nan
23303;BME280;11820;48.738;9.092;2023-02-03T11:28:25;97424.94;;;6.94;nan
23303;BME280;11820;48.738;9.092;2023-02-03T11:30:56;97420.47;;;6.96;nan
23303;BME280;11820;48.738;9.092;2023-02-03T11:33:26;97403.41;;;6.95;nan
23303;BME280;11820;48.738;9.092;2023-02-03T11:35:55;97396.47;;;7.05;nan
23303;BME280;11820;48.738;9.092;2023-02-03T11:38:33;97402.34;;;6.98;nan
23303;BME280;11820;48.738;9.092;2023-02-03T11:41:02;97393.91;;;7.05;nan
23303;BME280;11820;48.738;9.092;2023-02-03T11:43:28;97389.41;;;6.90;nan
23303;BME280;11820;48.738;9.092;2023-02-03T11:45:59;97381.22;;;6.94;nan
23303;BME280;11820;48.738;9.092;2023-02-03T11:48:37;97400.84;;;6.95;nan
23303;BME280;11820;48.738;9.092;2023-02-03T11:51:13;97376.09;;;6.94;nan
23303;BME280;11820;48.738;9.092;2023-02-03T11:54:22;97374.19;;;6.96;nan
23303;BME280;11820;48.738;9.092;2023-02-03T11:57:15;97367.28;;;6.97;nan
23303;BME280;11820;48.738;9.092;2023-02-03T12:00:12;97355.69;;;6.93;nan
23303;BME280;11820;48.738;9.092;2023-02-03T12:18:43;97363.56;;;7.09;nan
23303;BME280;11820;48.738;9.092;2023-02-03T12:24:02;97360.28;;;7.16;nan
23303;BME280;11820;48.738;9.092;2023-02-03T12:26:40;97373.34;;;7.05;nan
23303;BME280;11820;48.738;9.092;2023-02-03T12:29:19;97367.75;;;7.10;nan
23303;BME280;11820;48.738;9.092;2023-02-03T12:31:59;97364.09;;;7.12;nan
23303;BME280;11820;48.738;9.092;2023-02-03T12:37:26;97358.28;;;7.10;nan
23303;BME280;11820;48.738;9.092;2023-02-03T12:40:02;97349.63;;;7.11;nan
23303;BME280;11820;48.738;9.092;2023-02-03T12:42:34;97347.63;;;7.05;nan
23303;BME280;11820;48.738;9.092;2023-02-03T12:48:12;97353.72;;;7.04;nan
23303;BME280;11820;48.738;9.092;2023-02-03T12:50:44;97345.13;;;6.96;nan
23303;BME280;11820;48.738;9.092;2023-02-03T12:53:19;97339.50;;;7.00;nan
23303;BME280;11820;48.738;9.092;2023-02-03T12:55:57;97345.41;;;6.93;nan
23303;BME280;11820;48.738;9.092;2023-02-03T12:58:30;97326.00;;;6.98;nan
23303;BME280;11820;48.738;9.092;2023-02-03T13:01:07;97313.59;;;6.94;nan
23303;BME280;11820;48.738;9.092;2023-02-03T13:03:51;97293.03;;;6.94;nan
23303;BME280;11820;48.738;9.092;2023-02-03T13:06:23;97276.19;;;6.99;nan
23303;BME280;11820;48.738;9.092;2023-02-03T13:14:49;97295.91;;;7.08;nan
23303;BME280;11820;48.738;9.092;2023-02-03T13:17:22;97272.16;;;7.14;nan
23303;BME280;11820;48.738;9.092;2023-02-03T13:20:11;97280.72;;;7.15;nan
23303;BME280;11820;48.738;9.092;2023-02-03T13:22:38;97262.72;;;7.15;nan
23303;BME280;11820;48.738;9.092;2023-02-03T13:27:58;97286.22;;;7.20;nan
23303;BME280;11820;48.738;9.092;2023-02-03T13:31:06;97270.97;;;7.26;nan
23303;BME280;11820;48.738;9.092;2023-02-03T13:41:51;97271.22;;;7.15;nan
23303;BME280;11820;48.738;9.092;2023-02-03T13:44:21;97261.88;;;7.14;nan
23303;BME280;11820;48.738;9.092;2023-02-03T13:46:50;97263.63;;;7.14;nan
23303;BME280;11820;48.738;9.092;2023-02-03T13:49:32;97269.91;;;7.11;nan
23303;BME280;11820;48.738;9.092;2023-02-03T13:51:58;97241.91;;;7.08;nan
23303;BME280;11820;48.738;9.092;2023-02-03T13:54:27;97246.88;;;7.10;nan
23303;BME280;11820;48.738;9.092;2023-02-03T13:56:57;97250.34;;;7.18;nan
23303;BME280;11820;48.738;9.092;2023-02-03T14:12:54;97264.47;;;7.14;nan
23303;BME280;11820;48.738;9.092;2023-02-03T14:18:31;97290.84;;;6.99;nan
23303;BME280;11820;48.738;9.092;2023-02-03T14:21:09;97287.59;;;6.97;nan
23303;BME280;11820;48.738;9.092;2023-02-03T14:23:43;97287.00;;;7.03;nan
23303;BME280;11820;48.738;9.092;2023-02-03T14:29:33;97305.81;;;7.03;nan
23303;BME280;11820;48.738;9.092;2023-02-03T14:32:02;97301.13;;;6.99;nan
23303;BME280;11820;48.738;9.092;2023-02-03T14:45:20;97278.09;;;6.97;nan
23303;BME280;11820;48.738;9.092;2023-02-03T14:53:39;97300.75;;;6.94;nan
23303;BME280;11820;48.738;9.092;2023-02-03T14:56:44;97316.59;;;6.89;nan
23303;BME280;11820;48.738;9.092;2023-02-03T14:59:37;97310.06;;;6.95;nan
23303;BME280;11820;48.738;9.092;2023-02-03T15:02:11;97326.00;;;6.98;nan
23303;BME280;11820;48.738;9.092;2023-02-03T15:04:38;97320.13;;;6.88;nan
23303;BME280;11820;48.738;9.092;2023-02-03T15:07:04;97313.94;;;6.81;nan
23303;BME280;11820;48.738;9.092;2023-02-03T15:09:39;97320.84;;;6.81;nan
23303;BME280;11820;48.738;9.092;2023-02-03T15:14:41;97310.72;;;6.79;nan
23303;BME280;11820;48.738;9.092;2023-02-03T15:17:23;97309.66;;;6.72;nan
23303;BME280;11820;48.738;9.092;2023-02-03T15:19:49;97297.69;;;6.63;nan
23303;BME280;11820;48.738;9.092;2023-02-03T15:22:28;97299.81;;;6.68;nan
23303;BME280;11820;48.738;9.092;2023-02-03T15:24:59;97290.25;;;6.60;nan
23303;BME280;11820;48.738;9.092;2023-02-03T15:27:28;97288.66;;;6.59;nan
23303;BME280;11820;48.738;9.092;2023-02-03T15:29:54;97281.34;;;6.55;nan
23303;BME280;11820;48.738;9.092;2023-02-03T15:32:33;97284.59;;;6.57;nan
23303;BME280;11820;48.738;9.092;2023-02-03T15:35:02;97285.69;;;6.54;nan
23303;BME280;11820;48.738;9.092;2023-02-03T15:37:43;97301.91;;;6.55;nan
23303;BME280;11820;48.738;9.092;2023-02-03T15:40:37;97300.16;;;6.55;nan
23303;BME280;11820;48.738;9.092;2023-02-03T15:43:17;97292.47;;;6.55;nan
23303;BME280;11820;48.738;9.092;2023-02-03T15:45:53;97296.69;;;6.47;nan
23303;BME280;11820;48.738;9.092;2023-02-03T15:48:32;97296.09;;;6.53;nan
23303;BME280;11820;48.738;9.092;2023-02-03T15:53:57;97319.13;;;6.45;nan
23303;BME280;11820;48.738;9.092;2023-02-03T15:59:33;97334.41;;;6.46;nan
23303;BME280;11820;48.738;9.092;2023-02-03T16:02:29;97331.41;;;6.51;nan
23303;BME280;11820;48.738;9.092;2023-02-03T16:04:55;97320.22;;;6.42;nan
23303;BME280;11820;48.738;9.092;2023-02-03T16:07:25;97325.72;;;6.47;nan
23303;BME280;11820;48.738;9.092;2023-02-03T16:09:53;97350.34;;;6.50;nan
23303;BME280;11820;48.738;9.092;2023-02-03T16:12:23;97350.63;;;6.47;nan